Time;durP1;ratioP1;P1;durP2;ratioP2;P2;SDS_P1;SDS_P2;PMS_P1;PMS_P2;Temp;Humidity;BMP_temperature;BMP_pressure;BME280_temperature;BME280_humidity;BME280_pressure;Samples;Min_cycle;Max_cycle;Signal;HPM_P1;HPM_P2
2022/09/27 00:01:50;;;;;;;4.55;1.13;;;;;;;14.66;62.66;99533.63;5050521;28;20302;-64
2022/09/27 00:04:19;;;;;;;7.53;1.70;;;;;;;14.65;62.65;99541.88;5050994;28;20047;-64
2022/09/27 00:06:46;;;;;;;5.03;1.77;;;;;;;14.65;62.44;99547.28;5049998;28;20052;-64
2022/09/27 00:09:13;;;;;;;6.60;1.30;;;;;;;14.64;62.39;99543.75;5050713;28;20064;-65
2022/09/27 00:11:44;;;;;;;6.90;1.42;;;;;;;14.63;62.83;99542.06;5050515;28;20041;-65
2022/09/27 00:14:15;;;;;;;5.78;2.03;;;;;;;14.60;62.63;99547.78;5050979;28;20041;-64
2022/09/27 00:16:42;;;;;;;9.13;1.65;;;;;;;14.62;62.81;99559.28;5050673;28;20450;-64
2022/09/27 00:19:15;;;;;;;5.25;1.38;;;;;;;14.61;62.56;99553.03;5050534;28;20402;-64
2022/09/27 00:21:43;;;;;;;3.83;1.40;;;;;;;14.61;62.81;99561.13;5050103;28;20129;-64
2022/09/27 00:24:18;;;;;;;5.00;1.40;;;;;;;14.62;62.89;99565.53;5050793;28;20037;-64
2022/09/27 00:26:45;;;;;;;4.28;1.60;;;;;;;14.63;62.74;99563.66;5050456;28;20099;-65
2022/09/27 00:29:13;;;;;;;5.97;1.73;;;;;;;14.63;62.61;99559.13;5050609;28;20040;-64
2022/09/27 00:31:40;;;;;;;7.30;1.65;;;;;;;14.66;62.90;99560.63;5048760;28;20040;-64
2022/09/27 00:34:17;;;;;;;5.55;1.50;;;;;;;14.66;62.65;99565.19;5049187;28;20415;-64
2022/09/27 00:36:44;;;;;;;5.78;1.55;;;;;;;14.65;62.84;99564.34;5050404;28;20385;-64
2022/09/27 00:39:11;;;;;;;11.18;1.98;;;;;;;14.63;62.53;99567.22;5050446;28;20075;-64
2022/09/27 00:41:37;;;;;;;5.40;1.60;;;;;;;14.61;62.44;99566.53;5049117;28;20193;-64
2022/09/27 00:44:27;;;;;;;6.05;1.50;;;;;;;14.58;62.63;99569.56;5049013;28;20052;-64
2022/09/27 00:47:08;;;;;;;5.68;1.60;;;;;;;14.58;62.45;99566.03;5048799;28;20422;-64
2022/09/27 00:49:51;;;;;;;5.18;1.40;;;;;;;14.58;62.91;99574.13;5048951;28;20449;-64
2022/09/27 00:52:45;;;;;;;5.20;1.80;;;;;;;14.55;62.36;99577.16;5050337;28;20049;-65
2022/09/27 00:55:16;;;;;;;3.75;1.40;;;;;;;14.52;62.81;99574.78;5047411;28;20044;-65
2022/09/27 00:57:45;;;;;;;3.80;1.20;;;;;;;14.51;62.60;99582.06;5052690;28;20491;-64
2022/09/27 01:00:13;;;;;;;4.75;1.38;;;;;;;14.50;62.86;99584.91;5051756;28;20107;-65
2022/09/27 01:02:49;;;;;;;3.70;1.58;;;;;;;14.48;63.04;99571.56;5053552;28;20071;-64
2022/09/27 01:05:21;;;;;;;3.67;1.40;;;;;;;14.47;62.68;99569.88;5052552;28;20403;-65
2022/09/27 01:07:48;;;;;;;10.77;3.13;;;;;;;14.48;63.06;99578.84;5052462;28;20491;-64
2022/09/27 01:10:17;;;;;;;5.32;1.30;;;;;;;14.49;63.09;99575.13;5053560;28;20368;-64
2022/09/27 01:13:00;;;;;;;6.63;1.30;;;;;;;14.48;63.18;99584.25;5052040;28;20090;-64
2022/09/27 01:15:35;;;;;;;7.32;1.20;;;;;;;14.48;62.56;99585.09;5053449;28;20041;-64
2022/09/27 01:18:11;;;;;;;6.18;1.50;;;;;;;14.47;62.82;99585.25;5051963;28;20048;-64
2022/09/27 01:21:09;;;;;;;3.70;1.17;;;;;;;14.44;62.71;99578.31;5053487;28;20394;-64
2022/09/27 01:23:47;;;;;;;5.60;1.33;;;;;;;14.44;63.05;99578.31;5052019;28;20049;-65
2022/09/27 01:26:25;;;;;;;3.67;1.40;;;;;;;14.42;62.91;99582.16;5037351;28;20107;-64
2022/09/27 01:29:23;;;;;;;6.30;1.40;;;;;;;14.39;63.01;99580.63;5051767;28;20143;-64
2022/09/27 01:32:05;;;;;;;9.93;1.27;;;;;;;14.41;62.91;99581.31;5051735;28;20072;-64
2022/09/27 01:34:43;;;;;;;4.63;1.10;;;;;;;14.40;62.96;99578.78;5052086;28;20041;-63
2022/09/27 01:37:28;;;;;;;4.88;1.20;;;;;;;14.40;62.86;99581.47;5051793;28;20503;-63
2022/09/27 01:40:04;;;;;;;3.17;1.05;;;;;;;14.39;63.14;99586.03;5051614;28;20041;-64
2022/09/27 01:42:35;;;;;;;;;;;;;;;14.37;63.07;99579.97;5053404;28;20415;-64
2022/09/27 01:45:29;;;;;;;7.88;1.10;;;;;;;14.41;62.95;99597.53;5051279;28;19921;-64
2022/09/27 01:48:21;;;;;;;3.58;1.23;;;;;;;14.41;62.63;99591.28;5037776;28;20571;-65
2022/09/27 01:51:05;;;;;;;4.07;1.00;;;;;;;14.35;62.81;99595.47;5051539;28;20072;-64
2022/09/27 01:53:50;;;;;;;2.88;1.00;;;;;;;14.32;63.09;99591.25;5051358;28;20380;-65
2022/09/27 01:56:56;;;;;;;1.67;0.70;;;;;;;14.31;62.77;99596.81;5053190;28;20052;-64
2022/09/27 01:59:36;;;;;;;4.82;0.93;;;;;;;14.33;62.90;99594.78;5050896;28;20102;-64
2022/09/27 02:02:24;;;;;;;3.85;1.05;;;;;;;14.34;62.58;99598.34;5052791;28;20056;-64
2022/09/27 02:05:19;;;;;;;4.68;1.00;;;;;;;14.34;62.97;99595.63;5049418;28;20061;-66
2022/09/27 02:08:10;;;;;;;5.93;0.90;;;;;;;14.32;62.97;99596.66;5051354;28;20045;-65
2022/09/27 02:10:42;;;;;;;7.82;1.63;;;;;;;14.34;62.79;99598.34;5051267;28;20048;-65
2022/09/27 02:13:23;;;;;;;4.93;1.50;;;;;;;14.34;62.99;99596.50;5051889;28;20376;-64
2022/09/27 02:16:01;;;;;;;4.10;1.00;;;;;;;14.36;62.77;99591.78;5051144;28;20486;-64
2022/09/27 02:19:06;;;;;;;3.63;1.00;;;;;;;14.37;62.74;99604.25;5035940;28;20135;-64
2022/09/27 02:21:54;;;;;;;;;;;;;;;14.36;62.67;99605.28;5051317;28;20045;-65
2022/09/27 02:24:29;;;;;;;5.00;1.33;;;;;;;14.42;62.79;99604.66;5051069;28;20298;-64
2022/09/27 02:27:10;;;;;;;5.43;1.02;;;;;;;14.39;62.52;99610.34;5050878;28;20079;-64
2022/09/27 02:29:50;;;;;;;11.77;1.63;;;;;;;14.37;62.69;99609.66;5034291;28;20045;-65
2022/09/27 02:32:17;;;;;;;2.58;1.00;;;;;;;14.36;63.03;99601.72;5050633;28;20049;-65
2022/09/27 02:34:45;;;;;;;4.93;1.38;;;;;;;14.32;62.38;99607.44;5050810;28;20049;-64
2022/09/27 02:37:13;;;;;;;2.75;0.85;;;;;;;14.31;62.67;99605.75;5050452;28;20049;-65
2022/09/27 02:39:39;;;;;;;5.05;1.13;;;;;;;14.31;62.92;99597.66;5050606;28;20048;-65
2022/09/27 02:42:07;;;;;;;3.67;1.02;;;;;;;14.32;62.69;99604.75;5050079;28;20446;-65
2022/09/27 02:44:41;;;;;;;6.05;1.38;;;;;;;14.34;63.01;99609.16;5050713;28;20490;-65
2022/09/27 02:47:26;;;;;;;5.53;1.40;;;;;;;14.34;62.63;99604.59;5051780;28;20491;-64
2022/09/27 02:50:12;;;;;;;8.65;1.08;;;;;;;14.35;62.74;99602.72;5050546;28;20119;-64
2022/09/27 02:52:53;;;;;;;3.80;1.00;;;;;;;14.32;62.50;99604.75;5051628;28;20049;-64
2022/09/27 02:55:43;;;;;;;4.32;1.13;;;;;;;14.29;62.67;99612.34;5050110;28;20048;-64
2022/09/27 02:58:57;;;;;;;5.47;1.10;;;;;;;14.26;62.64;99612.66;5051565;28;20495;-64
2022/09/27 03:01:46;;;;;;;5.28;1.50;;;;;;;14.24;62.70;99607.41;5049827;28;20055;-64
2022/09/27 03:04:31;;;;;;;3.63;1.10;;;;;;;14.21;62.52;99599.66;5050217;28;20052;-64
2022/09/27 03:06:59;;;;;;;3.85;1.25;;;;;;;14.19;62.50;99611.63;5051874;28;20033;-65
2022/09/27 03:09:47;;;;;;;3.03;1.00;;;;;;;14.15;62.41;99618.34;5049710;28;20056;-65
2022/09/27 03:12:21;;;;;;;3.55;1.10;;;;;;;14.13;62.25;99617.66;5049737;28;20059;-64
2022/09/27 03:14:48;;;;;;;5.65;1.30;;;;;;;14.09;62.57;99613.56;5049382;28;20085;-65
2022/09/27 03:17:50;;;;;;;3.58;0.75;;;;;;;14.06;62.50;99613.88;5028521;28;20467;-65
2022/09/27 03:20:51;;;;;;;3.97;1.20;;;;;;;14.02;62.43;99613.38;5049915;28;20045;-65
2022/09/27 03:23:19;;;;;;;7.35;1.30;;;;;;;13.97;62.50;99603.06;5049502;28;20565;-65
2022/09/27 03:25:47;;;;;;;4.15;0.90;;;;;;;13.93;62.29;99611.63;5049400;28;20045;-65
2022/09/27 03:28:15;;;;;;;4.97;1.50;;;;;;;13.92;62.61;99618.88;5049614;28;20041;-65
2022/09/27 03:30:44;;;;;;;3.58;1.20;;;;;;;13.91;62.28;99617.19;5049757;28;20037;-64
2022/09/27 03:33:16;;;;;;;8.07;1.30;;;;;;;13.90;62.54;99620.91;5082833;28;20482;-65
2022/09/27 03:35:46;;;;;;;4.43;1.27;;;;;;;13.89;62.36;99621.06;5049656;28;20048;-65
2022/09/27 03:38:14;;;;;;;3.75;1.00;;;;;;;13.88;62.58;99619.38;5049484;28;20049;-64
2022/09/27 03:40:40;;;;;;;4.60;1.13;;;;;;;13.87;62.44;99618.50;5051084;28;20516;-64
2022/09/27 03:43:08;;;;;;;3.35;1.02;;;;;;;13.88;62.39;99613.97;5049297;28;20075;-64
2022/09/27 03:45:37;;;;;;;3.33;1.25;;;;;;;13.88;62.72;99606.72;5051172;28;20047;-64
2022/09/27 03:48:07;;;;;;;4.35;1.40;;;;;;;13.90;62.45;99617.34;5049188;28;20037;-65
2022/09/27 03:50:34;;;;;;;6.13;1.27;;;;;;;13.91;62.12;99614.50;5049637;28;20544;-64
2022/09/27 03:53:01;;;;;;;4.18;1.33;;;;;;;13.92;62.26;99626.13;5048973;28;20033;-64
2022/09/27 03:55:29;;;;;;;13.10;1.95;;;;;;;13.90;62.14;99636.25;5049851;28;20053;-65
2022/09/27 03:57:55;;;;;;;3.17;1.10;;;;;;;13.89;62.36;99640.78;5049408;28;20041;-65
2022/09/27 04:00:23;;;;;;;6.90;1.10;;;;;;;13.87;62.08;99647.34;5049275;28;20041;-65
2022/09/27 04:02:50;;;;;;;3.15;1.10;;;;;;;13.84;62.19;99648.53;5050660;28;20492;-65
2022/09/27 04:05:25;;;;;;;4.97;0.95;;;;;;;13.82;62.27;99661.31;5051055;28;20124;-65
2022/09/27 04:07:56;;;;;;;4.40;1.30;;;;;;;13.80;62.04;99666.03;5049143;28;20136;-64
2022/09/27 04:10:23;;;;;;;7.63;1.80;;;;;;;13.77;61.93;99652.88;5049342;28;20514;-65
2022/09/27 04:12:50;;;;;;;3.95;1.13;;;;;;;13.73;61.93;99659.59;5049249;28;20084;-65
2022/09/27 04:15:19;;;;;;;2.80;0.90;;;;;;;13.71;61.92;99644.56;5050896;28;20064;-65
2022/09/27 04:17:49;;;;;;;4.95;1.35;;;;;;;13.66;62.31;99640.47;5050756;28;20049;-65
2022/09/27 04:20:42;;;;;;;6.72;1.38;;;;;;;13.65;62.50;99629.84;5043334;28;20049;-65
2022/09/27 04:23:12;;;;;;;4.65;1.33;;;;;;;13.62;62.24;99620.22;5048821;28;20059;-65
2022/09/27 04:25:44;;;;;;;4.82;1.00;;;;;;;13.61;62.04;99615.81;5049298;28;20520;-65
2022/09/27 04:28:19;;;;;;;6.47;1.40;;;;;;;13.60;62.30;99614.13;5052707;28;20075;-65
2022/09/27 04:30:46;;;;;;;2.13;1.05;;;;;;;13.61;62.47;99612.28;5052737;28;20136;-65
2022/09/27 04:33:31;;;;;;;4.30;1.10;;;;;;;13.58;62.43;99608.06;5054284;28;20510;-65
2022/09/27 04:36:25;;;;;;;3.25;0.73;;;;;;;13.58;62.23;99601.81;5053104;28;20136;-65
2022/09/27 04:39:06;;;;;;;4.30;0.98;;;;;;;13.57;62.42;99600.97;5052358;28;20140;-64
2022/09/27 04:41:36;;;;;;;2.42;0.68;;;;;;;13.56;62.01;99606.53;5054043;28;20487;-65
2022/09/27 04:44:03;;;;;;;5.40;0.82;;;;;;;13.56;62.11;99599.28;5052907;28;20045;-65
2022/09/27 04:46:30;;;;;;;4.32;1.23;;;;;;;13.57;61.94;99616.31;5053009;28;20045;-64
2022/09/27 04:48:59;;;;;;;2.97;0.70;;;;;;;13.55;61.89;99618.31;5053902;28;20124;-65
2022/09/27 04:51:27;;;;;;;2.58;0.90;;;;;;;13.51;62.12;99609.69;5052628;28;20067;-65
2022/09/27 04:53:58;;;;;;;3.65;0.80;;;;;;;13.49;61.95;99621.63;5052761;28;20053;-64
2022/09/27 04:56:28;;;;;;;1.30;0.70;;;;;;;13.47;61.88;99627.19;5052096;28;20037;-64
2022/09/27 04:58:54;;;;;;;1.42;0.60;;;;;;;13.45;61.81;99625.66;5052577;28;20041;-64
2022/09/27 05:01:21;;;;;;;2.35;0.60;;;;;;;13.42;61.69;99634.06;5052409;28;20041;-65
2022/09/27 05:04:13;;;;;;;1.88;0.57;;;;;;;13.39;61.98;99635.22;5053795;28;20446;-64
2022/09/27 05:06:43;;;;;;;3.22;0.60;;;;;;;13.39;61.89;99637.06;5052281;28;20045;-64
2022/09/27 05:09:21;;;;;;;2.38;0.70;;;;;;;13.40;61.97;99641.47;5051999;28;20045;-64
2022/09/27 05:11:50;;;;;;;4.30;0.80;;;;;;;13.39;61.46;99637.91;5052152;28;20041;-65
2022/09/27 05:14:43;;;;;;;1.83;0.70;;;;;;;13.37;61.89;99650.69;5052418;28;20055;-64
2022/09/27 05:17:30;;;;;;;2.70;0.63;;;;;;;13.36;61.77;99662.47;5041789;28;20136;-65
2022/09/27 05:20:29;;;;;;;4.90;0.80;;;;;;;13.34;61.50;99659.94;5053349;28;20053;-65
2022/09/27 05:23:19;;;;;;;4.97;1.00;;;;;;;13.35;61.94;99663.47;5052602;28;20456;-64
2022/09/27 05:25:46;;;;;;;1.10;0.60;;;;;;;13.32;61.85;99661.09;5052361;28;20064;-64
2022/09/27 05:28:13;;;;;;;2.08;0.77;;;;;;;13.31;61.80;99652.16;5053428;28;20140;-64
2022/09/27 05:30:40;;;;;;;1.63;0.77;;;;;;;13.31;61.88;99641.38;5051641;28;20037;-64
2022/09/27 05:33:13;;;;;;;2.20;0.70;;;;;;;13.32;61.97;99647.59;5051628;28;20055;-65
2022/09/27 05:35:43;;;;;;;3.03;0.70;;;;;;;13.30;62.09;99625.34;5053386;28;20496;-64
2022/09/27 05:38:11;;;;;;;2.75;1.10;;;;;;;13.28;61.78;99627.34;5050782;28;20041;-65
2022/09/27 05:40:43;;;;;;;2.25;0.98;;;;;;;13.26;61.90;99632.06;5051860;28;20037;-65
2022/09/27 05:43:10;;;;;;;1.40;0.70;;;;;;;13.24;61.86;99643.00;5051579;28;20045;-64
2022/09/27 05:45:36;;;;;;;3.13;0.70;;;;;;;13.25;62.20;99649.22;5051861;28;20389;-64
2022/09/27 05:48:04;;;;;;;3.92;0.80;;;;;;;13.26;62.05;99642.84;5051718;28;20336;-64
2022/09/27 05:50:38;;;;;;;4.63;0.80;;;;;;;13.26;62.31;99640.97;5051400;28;20049;-65
2022/09/27 05:53:05;;;;;;;1.35;0.60;;;;;;;13.28;62.31;99638.97;5050828;28;20041;-65
2022/09/27 05:55:33;;;;;;;2.20;0.65;;;;;;;13.30;62.15;99647.75;5051764;28;20524;-65
2022/09/27 05:58:05;;;;;;;2.85;0.85;;;;;;;13.30;62.05;99636.13;5051489;28;20037;-65
2022/09/27 06:00:42;;;;;;;3.05;0.85;;;;;;;13.29;62.27;99637.13;5052756;28;20490;-65
2022/09/27 06:03:29;;;;;;;2.92;0.75;;;;;;;13.29;62.03;99648.75;5052614;28;20312;-65
2022/09/27 06:06:16;;;;;;;1.92;0.57;;;;;;;13.30;62.33;99655.00;5052463;28;20499;-65
2022/09/27 06:08:50;;;;;;;2.28;1.02;;;;;;;13.30;62.49;99646.91;5050849;28;20052;-65
2022/09/27 06:11:18;;;;;;;3.92;0.75;;;;;;;13.29;62.37;99639.81;5051134;28;20044;-66
2022/09/27 06:13:52;;;;;;;2.20;0.70;;;;;;;13.29;62.47;99639.81;5050952;28;20056;-64
2022/09/27 06:16:18;;;;;;;3.42;0.60;;;;;;;13.32;62.25;99636.81;5050921;28;20130;-65
2022/09/27 06:18:45;;;;;;;2.53;0.80;;;;;;;13.34;62.27;99651.00;5051054;28;20491;-65
2022/09/27 06:21:12;;;;;;;3.88;0.70;;;;;;;13.36;62.25;99647.13;5050996;28;20407;-65
2022/09/27 06:23:47;;;;;;;1.50;0.65;;;;;;;13.39;62.18;99650.56;5051072;28;20041;-65
2022/09/27 06:26:25;;;;;;;2.83;0.73;;;;;;;13.41;62.50;99662.88;5050307;28;20041;-64
2022/09/27 06:29:29;;;;;;;1.88;1.15;;;;;;;13.43;62.36;99668.13;5029699;28;20427;-64
2022/09/27 06:31:59;;;;;;;2.20;0.80;;;;;;;13.44;62.47;99670.66;5043575;28;20041;-64
2022/09/27 06:34:40;;;;;;;2.60;0.80;;;;;;;13.46;62.05;99670.50;5050805;28;20388;-65
2022/09/27 06:37:07;;;;;;;2.75;0.85;;;;;;;13.46;62.35;99676.75;5052328;28;20434;-64
2022/09/27 06:39:33;;;;;;;5.10;0.68;;;;;;;13.47;62.24;99685.69;5050322;28;20052;-65
2022/09/27 06:42:36;;;;;;;3.17;0.88;;;;;;;13.48;62.31;99699.00;5029247;28;20049;-65
2022/09/27 06:45:10;;;;;;;1.92;0.68;;;;;;;13.50;62.47;99693.47;5044113;28;20037;-64
2022/09/27 06:47:39;;;;;;;1.77;0.90;;;;;;;13.51;62.31;99701.41;5051746;28;20037;-63
2022/09/27 06:50:23;;;;;;;1.73;0.88;;;;;;;13.53;62.42;99703.94;5052105;28;20080;-64
2022/09/27 06:52:49;;;;;;;3.92;0.90;;;;;;;13.52;62.46;99710.34;5049970;28;20045;-63
2022/09/27 06:55:20;;;;;;;5.15;0.80;;;;;;;13.54;62.27;99711.03;5050833;28;20041;-64
2022/09/27 07:00:32;;;;;;;2.50;0.90;;;;;;;13.56;62.17;99714.41;5050454;28;20037;-65
2022/09/27 07:03:40;;;;;;;1.98;0.80;;;;;;;13.58;62.24;99710.56;5051360;28;20100;-65
2022/09/27 07:06:27;;;;;;;2.25;0.70;;;;;;;13.59;62.37;99708.72;5031405;28;20049;-64
2022/09/27 07:09:05;;;;;;;2.17;0.80;;;;;;;13.60;62.19;99708.56;5042484;28;20045;-65
2022/09/27 07:11:35;;;;;;;2.40;0.77;;;;;;;13.65;62.53;99708.09;5051407;28;20033;-65
2022/09/27 07:14:03;;;;;;;5.70;1.73;;;;;;;13.68;62.18;99700.53;5050230;28;20509;-65
2022/09/27 07:16:30;;;;;;;2.22;0.90;;;;;;;13.72;62.54;99695.66;5049967;28;20480;-65
2022/09/27 07:18:58;;;;;;;3.20;1.13;;;;;;;13.75;62.22;99697.19;5051281;28;20316;-65
2022/09/27 07:21:25;;;;;;;2.30;1.00;;;;;;;13.79;62.40;99695.88;5051133;28;20499;-64
2022/09/27 07:23:56;;;;;;;4.10;0.93;;;;;;;13.82;62.56;99699.09;5051400;28;20037;-64
2022/09/27 07:26:22;;;;;;;1.40;0.93;;;;;;;13.85;62.26;99704.19;5049746;28;20041;-65
2022/09/27 07:28:50;;;;;;;4.53;1.13;;;;;;;13.88;62.38;99700.31;5049417;28;20044;-64
2022/09/27 07:31:16;;;;;;;2.42;1.10;;;;;;;13.89;62.53;99715.50;5049849;28;20495;-65
2022/09/27 07:33:49;;;;;;;3.85;1.10;;;;;;;13.90;62.34;99715.34;5049384;28;20072;-66
2022/09/27 07:36:16;;;;;;;2.00;1.33;;;;;;;13.92;62.50;99712.50;5051114;28;20037;-65
2022/09/27 07:38:45;;;;;;;3.47;1.30;;;;;;;13.94;62.47;99722.13;5049664;28;20060;-67
2022/09/27 07:41:13;;;;;;;3.38;1.17;;;;;;;13.96;62.19;99730.06;5049373;28;20131;-65
2022/09/27 07:44:07;;;;;;;4.05;1.10;;;;;;;13.98;62.52;99733.47;5049587;28;20055;-66
2022/09/27 07:46:40;;;;;;;2.80;1.27;;;;;;;14.01;62.46;99727.75;5049788;28;20087;-65
2022/09/27 07:49:36;;;;;;;4.10;1.63;;;;;;;14.05;62.41;99739.06;5031180;28;20463;-65
2022/09/27 07:52:20;;;;;;;1.27;1.10;;;;;;;14.06;62.50;99735.38;5050897;28;20037;-65
2022/09/27 07:55:13;;;;;;;3.47;1.60;;;;;;;14.07;62.20;99742.47;5051145;28;20521;-65
2022/09/27 07:58:07;;;;;;;2.22;1.50;;;;;;;14.08;62.44;99741.47;5049744;28;20511;-65
2022/09/27 08:00:35;;;;;;;2.58;1.55;;;;;;;14.08;62.55;99744.16;5049714;28;20048;-65
2022/09/27 08:03:07;;;;;;;2.17;1.58;;;;;;;14.08;62.30;99744.16;5052640;28;20102;-64
2022/09/27 08:05:35;;;;;;;4.07;1.50;;;;;;;14.11;62.42;99733.03;5054241;28;20045;-65
2022/09/27 08:08:03;;;;;;;6.30;1.88;;;;;;;14.14;62.47;99740.84;5053540;28;20383;-65
2022/09/27 08:10:32;;;;;;;2.08;1.63;;;;;;;14.17;62.66;99748.63;5053446;28;20415;-65
2022/09/27 08:13:03;;;;;;;4.43;1.90;;;;;;;14.19;62.78;99754.72;5053206;28;20049;-65
2022/09/27 08:15:34;;;;;;;5.07;1.90;;;;;;;14.21;62.84;99752.72;5054889;28;20072;-65
2022/09/27 08:18:01;;;;;;;3.40;2.00;;;;;;;14.23;62.63;99751.56;5052697;28;20068;-66
2022/09/27 08:20:48;;;;;;;3.90;2.75;;;;;;;14.27;62.84;99752.94;5050402;28;20048;-65
2022/09/27 08:23:48;;;;;;;2.47;2.20;;;;;;;14.29;62.33;99750.06;5045344;28;20049;-66
2022/09/27 08:26:40;;;;;;;4.13;2.30;;;;;;;14.30;62.73;99749.06;5052483;28;20044;-66
2022/09/27 08:29:17;;;;;;;3.88;2.60;;;;;;;14.34;62.54;99752.28;5053266;28;20395;-65
2022/09/27 08:31:52;;;;;;;4.07;2.85;;;;;;;14.36;62.49;99756.53;5053107;28;20041;-65
2022/09/27 08:34:23;;;;;;;4.55;2.70;;;;;;;14.38;62.50;99751.81;5054554;28;20049;-66
2022/09/27 08:36:50;;;;;;;7.10;2.58;;;;;;;14.40;62.57;99757.06;5053871;28;20099;-65
2022/09/27 08:39:17;;;;;;;6.00;3.03;;;;;;;14.44;62.46;99755.75;5052926;28;20048;-65
2022/09/27 08:41:51;;;;;;;4.57;2.75;;;;;;;14.48;62.93;99755.28;5052689;28;20059;-65
2022/09/27 08:44:30;;;;;;;4.05;2.60;;;;;;;14.54;62.96;99754.63;5053040;28;20045;-66
2022/09/27 08:47:14;;;;;;;3.17;2.85;;;;;;;14.60;62.75;99764.78;5052509;28;20041;-66
2022/09/27 08:49:50;;;;;;;4.50;3.03;;;;;;;14.64;63.03;99754.50;5052863;28;20048;-65
2022/09/27 08:52:26;;;;;;;7.78;3.10;;;;;;;14.69;63.02;99762.97;5053898;28;20399;-65
2022/09/27 08:54:56;;;;;;;5.38;3.28;;;;;;;14.74;62.80;99770.59;5052605;28;20041;-65
2022/09/27 08:57:23;;;;;;;5.30;3.40;;;;;;;14.77;62.77;99764.88;5052352;28;20065;-66
2022/09/27 09:00:11;;;;;;;3.78;3.22;;;;;;;14.78;62.61;99770.13;5052585;28;20037;-66
2022/09/27 09:02:40;;;;;;;5.38;2.97;;;;;;;14.81;62.86;99775.19;5052467;28;20148;-67
2022/09/27 09:05:13;;;;;;;5.20;3.28;;;;;;;14.81;62.39;99779.75;5052771;28;20047;-67
2022/09/27 09:08:01;;;;;;;4.53;3.40;;;;;;;14.79;62.25;99781.78;5053190;28;20466;-66
2022/09/27 09:13:44;;;;;;;6.65;4.30;;;;;;;14.77;62.46;99778.38;5052223;28;20049;-66
2022/09/27 09:16:42;;;;;;;5.95;4.15;;;;;;;14.77;62.46;99773.81;5050974;28;20087;-67
2022/09/27 09:19:30;;;;;;;5.72;4.22;;;;;;;14.77;62.45;99778.38;5051859;28;20102;-67
2022/09/27 09:22:27;;;;;;;5.88;5.13;;;;;;;14.77;62.57;99781.09;5053247;28;20513;-67
2022/09/27 09:25:08;;;;;;;8.75;5.57;;;;;;;14.78;62.24;99780.06;5052122;28;20056;-67
2022/09/27 09:27:52;;;;;;;7.55;6.30;;;;;;;14.78;62.13;99778.22;5050064;28;20122;-66
2022/09/27 09:30:21;;;;;;;10.25;5.95;;;;;;;14.83;62.42;99777.72;5051584;28;20135;-67
2022/09/27 09:33:17;;;;;;;9.65;6.43;;;;;;;14.84;62.49;99782.13;5051816;28;20496;-67
2022/09/27 09:35:47;;;;;;;7.80;6.57;;;;;;;14.87;62.25;99782.69;5052506;28;20079;-67
2022/09/27 09:38:26;;;;;;;10.80;7.07;;;;;;;14.86;62.17;99791.81;5052727;28;20061;-67
2022/09/27 09:41:04;;;;;;;9.05;7.22;;;;;;;14.88;62.15;99780.84;5051806;28;20045;-67
2022/09/27 09:43:54;;;;;;;8.93;7.05;;;;;;;14.87;62.47;99779.97;5051578;28;20431;-66
2022/09/27 09:46:34;;;;;;;10.95;7.30;;;;;;;14.89;62.44;99786.06;5041752;28;20091;-67
2022/09/27 09:49:25;;;;;;;8.70;7.55;;;;;;;14.90;62.42;99790.47;5051080;28;20123;-67
2022/09/27 09:51:58;;;;;;;10.93;8.43;;;;;;;14.91;62.37;99789.47;5052670;28;20087;-66
2022/09/27 09:54:42;;;;;;;8.27;7.18;;;;;;;14.90;62.10;99784.22;5051273;28;20438;-66
2022/09/27 09:57:14;;;;;;;9.27;7.50;;;;;;;14.89;62.52;99777.13;5052961;28;20033;-66
2022/09/27 09:59:49;;;;;;;12.02;7.78;;;;;;;14.92;62.53;99783.03;5051104;28;20044;-67
2022/09/27 10:02:27;;;;;;;;;;;;;;;14.95;62.58;99781.88;5050764;28;20136;-67
2022/09/27 10:05:02;;;;;;;16.00;7.75;;;;;;;15.00;62.09;99776.81;5040720;28;20027;-67
2022/09/27 10:07:37;;;;;;;9.05;6.97;;;;;;;15.02;62.10;99779.38;5051244;28;20076;-67
2022/09/27 10:10:06;;;;;;;10.93;7.03;;;;;;;15.03;62.56;99778.34;5051437;28;20128;-67
2022/09/27 10:13:04;;;;;;;8.50;7.15;;;;;;;15.02;62.10;99776.66;5051066;28;20398;-67
2022/09/27 10:15:36;;;;;;;9.68;6.88;;;;;;;15.02;62.60;99772.09;5050269;28;20519;-67
2022/09/27 10:18:03;;;;;;;7.88;6.43;;;;;;;15.06;62.41;99778.88;5051908;28;20418;-67
2022/09/27 10:20:45;;;;;;;10.07;6.65;;;;;;;15.07;62.37;99777.00;5052163;28;20048;-66
2022/09/27 10:23:15;;;;;;;12.25;6.43;;;;;;;15.08;62.09;99782.25;5050632;28;20045;-63
2022/09/27 10:26:04;;;;;;;6.20;4.88;;;;;;;15.05;61.96;99777.19;5051664;28;20194;-63
2022/09/27 10:28:57;;;;;;;6.70;5.32;;;;;;;15.01;62.12;99781.22;5050773;28;20053;-63
2022/09/27 10:31:40;;;;;;;7.20;5.10;;;;;;;14.98;62.25;99780.69;5050563;28;20052;-64
2022/09/27 10:34:34;;;;;;;6.50;4.47;;;;;;;14.94;62.06;99783.72;5050234;28;20045;-63
2022/09/27 10:37:22;;;;;;;5.88;3.97;;;;;;;14.92;61.78;99788.47;5050564;28;20049;-63
2022/09/27 10:40:23;;;;;;;3.97;3.22;;;;;;;14.92;61.64;99787.59;5050361;28;20045;-63
2022/09/27 10:42:50;;;;;;;3.80;2.38;;;;;;;14.94;61.70;99781.03;5050560;28;20514;-64
2022/09/27 10:45:32;;;;;;;2.97;1.95;;;;;;;14.96;61.67;99785.44;5049696;28;20076;-63
2022/09/27 10:48:18;;;;;;;1.93;1.70;;;;;;;14.93;61.51;99792.00;5050500;28;20037;-63
2022/09/27 10:51:07;;;;;;;3.15;1.60;;;;;;;14.89;61.59;99782.53;5050336;28;20041;-63
2022/09/27 10:53:46;;;;;;;3.80;1.80;;;;;;;14.87;61.54;99779.97;5050285;28;20049;-64
2022/09/27 10:56:23;;;;;;;4.18;2.42;;;;;;;14.84;61.28;99782.97;5049943;28;20509;-63
2022/09/27 10:58:51;;;;;;;3.10;2.20;;;;;;;14.83;61.74;99780.44;5050156;28;20041;-64
2022/09/27 11:01:19;;;;;;;4.30;2.00;;;;;;;14.84;61.40;99774.88;5049804;28;20045;-64
2022/09/27 11:04:23;;;;;;;3.60;2.45;;;;;;;14.88;61.54;99776.28;5050160;28;20079;-63
2022/09/27 11:06:50;;;;;;;3.92;2.20;;;;;;;14.91;61.91;99781.34;5049933;28;20045;-63
2022/09/27 11:09:23;;;;;;;2.55;2.33;;;;;;;14.92;62.07;99782.19;5051632;28;20037;-64
2022/09/27 11:12:09;;;;;;;3.83;1.88;;;;;;;14.97;61.80;99790.66;5063150;28;20038;-63
2022/09/27 11:14:40;;;;;;;3.67;1.95;;;;;;;15.04;61.86;99785.47;5031290;28;20121;-64
2022/09/27 11:17:19;;;;;;;2.67;1.70;;;;;;;15.08;61.73;99789.53;5029552;28;20404;-63
2022/09/27 11:20:24;;;;;;;2.33;1.70;;;;;;;15.10;61.88;99788.34;5050485;28;20037;-64
2022/09/27 11:22:57;;;;;;;4.22;1.95;;;;;;;15.18;62.20;99792.94;5049739;28;20155;-63
2022/09/27 11:25:57;;;;;;;1.67;1.10;;;;;;;15.21;62.03;99792.63;5049946;28;20040;-63
2022/09/27 11:28:56;;;;;;;4.53;1.67;;;;;;;15.19;61.81;99792.78;5033158;28;20454;-64
2022/09/27 11:32:01;;;;;;;2.05;1.10;;;;;;;15.19;61.91;99794.63;5049820;28;20475;-64
2022/09/27 11:34:57;;;;;;;2.35;0.90;;;;;;;15.18;61.36;99790.22;5048320;28;20047;-64
2022/09/27 11:37:39;;;;;;;1.88;0.98;;;;;;;15.18;61.78;99799.19;5049166;28;20068;-64
2022/09/27 11:40:24;;;;;;;1.98;1.02;;;;;;;15.18;61.68;99798.34;5049271;28;20041;-64
2022/09/27 11:43:28;;;;;;;2.25;1.08;;;;;;;15.17;61.79;99792.09;5051033;28;20083;-64
2022/09/27 11:46:04;;;;;;;1.23;0.73;;;;;;;15.19;61.63;99791.94;5050927;28;20110;-64
2022/09/27 11:49:14;;;;;;;2.40;1.00;;;;;;;15.19;61.56;99800.88;5048844;28;20083;-64
2022/09/27 11:52:16;;;;;;;2.72;1.10;;;;;;;15.23;61.44;99801.41;5049220;28;20041;-64
2022/09/27 11:55:39;;;;;;;1.98;1.10;;;;;;;15.24;61.50;99793.13;5049790;28;20166;-64
2022/09/27 11:58:38;;;;;;;2.22;1.65;;;;;;;15.26;61.42;99798.38;4977053;28;20054;-63
2022/09/27 12:01:35;;;;;;;2.33;1.60;;;;;;;15.29;61.15;99794.50;4995534;28;20045;-64
2022/09/27 12:04:26;;;;;;;3.95;2.08;;;;;;;15.30;61.06;99790.78;5043691;28;20073;-64
2022/09/27 12:07:08;;;;;;;3.08;1.45;;;;;;;15.33;61.01;99796.69;5049605;28;20400;-64
2022/09/27 12:09:42;;;;;;;3.55;1.58;;;;;;;15.35;61.23;99783.00;5049561;28;20056;-63
2022/09/27 12:12:14;;;;;;;2.70;1.20;;;;;;;15.37;61.01;99783.69;5049385;28;20275;-64
2022/09/27 12:14:48;;;;;;;2.58;1.10;;;;;;;15.39;61.03;99776.25;5050498;28;20127;-64
2022/09/27 12:17:22;;;;;;;2.15;1.20;;;;;;;15.41;60.89;99769.66;5050363;28;20495;-64
2022/09/27 12:19:57;;;;;;;1.05;0.60;;;;;;;15.44;60.73;99763.06;5049082;28;20045;-63
2022/09/27 12:22:51;;;;;;;1.80;0.98;;;;;;;15.47;60.78;99758.19;5049298;28;20072;-64
2022/09/27 12:25:45;;;;;;;1.23;0.80;;;;;;;15.54;60.51;99764.63;5049575;28;20410;-64
2022/09/27 12:28:38;;;;;;;2.22;0.80;;;;;;;15.57;60.82;99766.13;5049627;28;20041;-64
2022/09/27 12:31:14;;;;;;;2.65;0.60;;;;;;;15.62;60.75;99768.41;5049481;28;20041;-63